sensor_id;sensor_type;location;lat;lon;timestamp;P1;durP1;ratioP1;P2;durP2;ratioP2
27491;SDS011;14927;51.210;6.838;2022-12-18T00:02:29;19.55;;;9.23;;
27491;SDS011;14927;51.210;6.838;2022-12-18T00:05:14;19.88;;;9.75;;
27491;SDS011;14927;51.210;6.838;2022-12-18T00:07:59;16.40;;;9.73;;
27491;SDS011;14927;51.210;6.838;2022-12-18T00:10:44;16.65;;;9.45;;
27491;SDS011;14927;51.210;6.838;2022-12-18T00:13:29;18.60;;;9.23;;
27491;SDS011;14927;51.210;6.838;2022-12-18T00:16:18;17.73;;;9.23;;
27491;SDS011;14927;51.210;6.838;2022-12-18T00:19:06;21.42;;;9.80;;
27491;SDS011;14927;51.210;6.838;2022-12-18T00:21:51;14.30;;;8.68;;
27491;SDS011;14927;51.210;6.838;2022-12-18T00:24:35;23.70;;;10.25;;
27491;SDS011;14927;51.210;6.838;2022-12-18T00:27:20;21.40;;;9.93;;
27491;SDS011;14927;51.210;6.838;2022-12-18T00:30:05;18.63;;;9.05;;
27491;SDS011;14927;51.210;6.838;2022-12-18T00:32:50;20.75;;;9.43;;
27491;SDS011;14927;51.210;6.838;2022-12-18T00:35:35;19.38;;;10.45;;
27491;SDS011;14927;51.210;6.838;2022-12-18T00:38:19;18.52;;;8.98;;
27491;SDS011;14927;51.210;6.838;2022-12-18T00:41:04;15.80;;;9.15;;
27491;SDS011;14927;51.210;6.838;2022-12-18T00:43:50;14.43;;;8.00;;
27491;SDS011;14927;51.210;6.838;2022-12-18T00:46:35;17.10;;;9.68;;
27491;SDS011;14927;51.210;6.838;2022-12-18T00:49:20;17.63;;;8.15;;
27491;SDS011;14927;51.210;6.838;2022-12-18T00:52:04;18.58;;;9.23;;
27491;SDS011;14927;51.210;6.838;2022-12-18T00:54:49;17.25;;;8.70;;
27491;SDS011;14927;51.210;6.838;2022-12-18T00:57:34;17.77;;;8.65;;
27491;SDS011;14927;51.210;6.838;2022-12-18T01:00:18;16.65;;;8.95;;
27491;SDS011;14927;51.210;6.838;2022-12-18T01:03:03;17.75;;;9.27;;
27491;SDS011;14927;51.210;6.838;2022-12-18T01:05:49;17.08;;;8.70;;
27491;SDS011;14927;51.210;6.838;2022-12-18T01:08:34;17.17;;;8.13;;
27491;SDS011;14927;51.210;6.838;2022-12-18T01:11:19;15.98;;;8.52;;
27491;SDS011;14927;51.210;6.838;2022-12-18T01:14:04;18.08;;;9.18;;
27491;SDS011;14927;51.210;6.838;2022-12-18T01:16:49;16.15;;;8.70;;
27491;SDS011;14927;51.210;6.838;2022-12-18T01:19:34;25.10;;;10.52;;
27491;SDS011;14927;51.210;6.838;2022-12-18T01:22:18;35.15;;;12.85;;
27491;SDS011;14927;51.210;6.838;2022-12-18T01:25:03;28.85;;;11.93;;
27491;SDS011;14927;51.210;6.838;2022-12-18T01:27:49;33.35;;;12.05;;
27491;SDS011;14927;51.210;6.838;2022-12-18T01:30:34;27.52;;;11.82;;
27491;SDS011;14927;51.210;6.838;2022-12-18T01:33:18;22.30;;;10.63;;
27491;SDS011;14927;51.210;6.838;2022-12-18T01:36:03;22.20;;;10.90;;
27491;SDS011;14927;51.210;6.838;2022-12-18T01:38:48;18.90;;;9.82;;
27491;SDS011;14927;51.210;6.838;2022-12-18T01:41:34;19.60;;;9.25;;
27491;SDS011;14927;51.210;6.838;2022-12-18T01:48:06;18.35;;;8.90;;
27491;SDS011;14927;51.210;6.838;2022-12-18T01:50:52;20.13;;;10.07;;
27491;SDS011;14927;51.210;6.838;2022-12-18T01:53:37;18.35;;;9.18;;
27491;SDS011;14927;51.210;6.838;2022-12-18T01:56:25;18.70;;;9.88;;
27491;SDS011;14927;51.210;6.838;2022-12-18T01:59:09;19.65;;;10.13;;
27491;SDS011;14927;51.210;6.838;2022-12-18T02:01:57;21.10;;;9.90;;
27491;SDS011;14927;51.210;6.838;2022-12-18T02:04:42;18.75;;;9.50;;
27491;SDS011;14927;51.210;6.838;2022-12-18T02:08:31;17.40;;;9.00;;
27491;SDS011;14927;51.210;6.838;2022-12-18T02:11:05;18.58;;;9.50;;
27491;SDS011;14927;51.210;6.838;2022-12-18T02:14:47;17.88;;;9.23;;
27491;SDS011;14927;51.210;6.838;2022-12-18T02:17:58;15.05;;;8.05;;
27491;SDS011;14927;51.210;6.838;2022-12-18T02:20:45;15.63;;;8.35;;
27491;SDS011;14927;51.210;6.838;2022-12-18T02:26:59;16.95;;;9.43;;
27491;SDS011;14927;51.210;6.838;2022-12-18T02:29:52;19.17;;;9.50;;
27491;SDS011;14927;51.210;6.838;2022-12-18T02:32:40;16.95;;;8.80;;
27491;SDS011;14927;51.210;6.838;2022-12-18T02:38:14;18.25;;;8.25;;
27491;SDS011;14927;51.210;6.838;2022-12-18T02:41:00;16.15;;;8.40;;
27491;SDS011;14927;51.210;6.838;2022-12-18T02:43:48;17.25;;;8.95;;
27491;SDS011;14927;51.210;6.838;2022-12-18T02:46:36;17.95;;;9.43;;
27491;SDS011;14927;51.210;6.838;2022-12-18T02:58:29;17.60;;;8.75;;
27491;SDS011;14927;51.210;6.838;2022-12-18T03:04:48;16.73;;;8.77;;
27491;SDS011;14927;51.210;6.838;2022-12-18T03:08:06;16.60;;;8.65;;
27491;SDS011;14927;51.210;6.838;2022-12-18T03:11:03;15.80;;;8.38;;
27491;SDS011;14927;51.210;6.838;2022-12-18T03:13:55;16.95;;;8.43;;
27491;SDS011;14927;51.210;6.838;2022-12-18T03:16:41;14.75;;;7.90;;
27491;SDS011;14927;51.210;6.838;2022-12-18T03:19:27;16.20;;;8.52;;
27491;SDS011;14927;51.210;6.838;2022-12-18T03:22:16;15.98;;;8.73;;
27491;SDS011;14927;51.210;6.838;2022-12-18T03:25:03;15.95;;;8.43;;
27491;SDS011;14927;51.210;6.838;2022-12-18T03:27:53;15.20;;;8.30;;
27491;SDS011;14927;51.210;6.838;2022-12-18T03:30:42;14.85;;;7.78;;
27491;SDS011;14927;51.210;6.838;2022-12-18T03:34:16;13.50;;;7.78;;
27491;SDS011;14927;51.210;6.838;2022-12-18T03:39:24;13.30;;;7.25;;
27491;SDS011;14927;51.210;6.838;2022-12-18T03:51:05;13.73;;;7.68;;
27491;SDS011;14927;51.210;6.838;2022-12-18T03:53:58;14.77;;;8.35;;
27491;SDS011;14927;51.210;6.838;2022-12-18T03:56:51;15.93;;;8.13;;
27491;SDS011;14927;51.210;6.838;2022-12-18T03:59:51;15.90;;;8.00;;
27491;SDS011;14927;51.210;6.838;2022-12-18T04:02:43;16.25;;;8.27;;
27491;SDS011;14927;51.210;6.838;2022-12-18T04:05:34;14.88;;;7.30;;
27491;SDS011;14927;51.210;6.838;2022-12-18T04:08:20;14.73;;;8.02;;
27491;SDS011;14927;51.210;6.838;2022-12-18T04:11:06;16.33;;;8.65;;
27491;SDS011;14927;51.210;6.838;2022-12-18T04:13:53;15.15;;;7.93;;
27491;SDS011;14927;51.210;6.838;2022-12-18T04:16:41;16.63;;;8.02;;
27491;SDS011;14927;51.210;6.838;2022-12-18T04:19:25;15.27;;;8.23;;
27491;SDS011;14927;51.210;6.838;2022-12-18T04:22:10;14.68;;;7.90;;
27491;SDS011;14927;51.210;6.838;2022-12-18T04:24:55;13.65;;;8.13;;
27491;SDS011;14927;51.210;6.838;2022-12-18T04:27:40;16.10;;;7.88;;
27491;SDS011;14927;51.210;6.838;2022-12-18T04:30:24;16.52;;;8.35;;
27491;SDS011;14927;51.210;6.838;2022-12-18T04:33:10;15.90;;;8.43;;
27491;SDS011;14927;51.210;6.838;2022-12-18T04:35:56;17.90;;;8.80;;
27491;SDS011;14927;51.210;6.838;2022-12-18T04:38:41;14.35;;;7.88;;
27491;SDS011;14927;51.210;6.838;2022-12-18T04:41:26;16.52;;;8.52;;
27491;SDS011;14927;51.210;6.838;2022-12-18T04:44:10;18.48;;;9.20;;
27491;SDS011;14927;51.210;6.838;2022-12-18T04:46:55;15.95;;;7.93;;
27491;SDS011;14927;51.210;6.838;2022-12-18T04:49:40;16.75;;;8.88;;
27491;SDS011;14927;51.210;6.838;2022-12-18T04:52:25;14.52;;;8.32;;
27491;SDS011;14927;51.210;6.838;2022-12-18T04:55:10;15.55;;;7.85;;
27491;SDS011;14927;51.210;6.838;2022-12-18T04:57:55;15.43;;;9.23;;
27491;SDS011;14927;51.210;6.838;2022-12-18T05:00:39;14.27;;;8.00;;
27491;SDS011;14927;51.210;6.838;2022-12-18T05:03:24;14.40;;;8.73;;
27491;SDS011;14927;51.210;6.838;2022-12-18T05:06:09;14.27;;;8.23;;
27491;SDS011;14927;51.210;6.838;2022-12-18T05:08:54;17.45;;;8.82;;
27491;SDS011;14927;51.210;6.838;2022-12-18T05:11:38;19.30;;;8.85;;
27491;SDS011;14927;51.210;6.838;2022-12-18T05:14:23;17.17;;;8.20;;
27491;SDS011;14927;51.210;6.838;2022-12-18T05:17:07;15.02;;;8.13;;
27491;SDS011;14927;51.210;6.838;2022-12-18T05:19:52;18.45;;;8.48;;
27491;SDS011;14927;51.210;6.838;2022-12-18T05:22:37;15.35;;;8.27;;
27491;SDS011;14927;51.210;6.838;2022-12-18T05:25:22;13.68;;;8.10;;
27491;SDS011;14927;51.210;6.838;2022-12-18T05:28:07;15.52;;;8.45;;
27491;SDS011;14927;51.210;6.838;2022-12-18T05:30:52;16.00;;;9.02;;
27491;SDS011;14927;51.210;6.838;2022-12-18T05:33:40;15.95;;;8.32;;
27491;SDS011;14927;51.210;6.838;2022-12-18T05:36:24;13.80;;;7.72;;
27491;SDS011;14927;51.210;6.838;2022-12-18T05:39:09;15.77;;;8.30;;
27491;SDS011;14927;51.210;6.838;2022-12-18T05:41:53;14.90;;;8.43;;
27491;SDS011;14927;51.210;6.838;2022-12-18T05:44:38;15.10;;;7.95;;
27491;SDS011;14927;51.210;6.838;2022-12-18T05:47:23;13.20;;;7.40;;
27491;SDS011;14927;51.210;6.838;2022-12-18T05:50:08;14.32;;;7.70;;
27491;SDS011;14927;51.210;6.838;2022-12-18T05:52:53;14.88;;;7.68;;
27491;SDS011;14927;51.210;6.838;2022-12-18T05:55:38;17.35;;;8.52;;
27491;SDS011;14927;51.210;6.838;2022-12-18T05:58:24;15.45;;;7.40;;
27491;SDS011;14927;51.210;6.838;2022-12-18T06:01:11;16.27;;;7.57;;
27491;SDS011;14927;51.210;6.838;2022-12-18T06:04:01;16.45;;;7.50;;
27491;SDS011;14927;51.210;6.838;2022-12-18T06:06:47;14.60;;;7.88;;
27491;SDS011;14927;51.210;6.838;2022-12-18T06:09:31;14.82;;;8.27;;
27491;SDS011;14927;51.210;6.838;2022-12-18T06:12:16;17.38;;;8.30;;
27491;SDS011;14927;51.210;6.838;2022-12-18T06:15:00;18.50;;;7.85;;
27491;SDS011;14927;51.210;6.838;2022-12-18T06:17:45;16.27;;;8.30;;
27491;SDS011;14927;51.210;6.838;2022-12-18T06:20:30;14.50;;;7.65;;
27491;SDS011;14927;51.210;6.838;2022-12-18T06:23:15;15.65;;;8.38;;
27491;SDS011;14927;51.210;6.838;2022-12-18T06:26:03;17.88;;;8.35;;
27491;SDS011;14927;51.210;6.838;2022-12-18T06:28:50;16.05;;;8.15;;
27491;SDS011;14927;51.210;6.838;2022-12-18T06:31:34;17.13;;;8.77;;
27491;SDS011;14927;51.210;6.838;2022-12-18T06:34:19;14.60;;;8.05;;
27491;SDS011;14927;51.210;6.838;2022-12-18T06:37:03;15.35;;;7.80;;
27491;SDS011;14927;51.210;6.838;2022-12-18T06:39:48;14.60;;;7.70;;
27491;SDS011;14927;51.210;6.838;2022-12-18T06:42:33;16.20;;;7.57;;
27491;SDS011;14927;51.210;6.838;2022-12-18T06:45:18;16.10;;;8.68;;
27491;SDS011;14927;51.210;6.838;2022-12-18T06:48:02;16.55;;;8.60;;
27491;SDS011;14927;51.210;6.838;2022-12-18T06:50:47;16.50;;;8.18;;
27491;SDS011;14927;51.210;6.838;2022-12-18T06:53:32;14.35;;;7.97;;
27491;SDS011;14927;51.210;6.838;2022-12-18T06:56:17;14.75;;;8.15;;
27491;SDS011;14927;51.210;6.838;2022-12-18T06:59:02;16.65;;;8.13;;
27491;SDS011;14927;51.210;6.838;2022-12-18T07:01:46;15.32;;;8.00;;
27491;SDS011;14927;51.210;6.838;2022-12-18T07:04:31;13.82;;;8.43;;
27491;SDS011;14927;51.210;6.838;2022-12-18T07:07:16;13.73;;;7.75;;
27491;SDS011;14927;51.210;6.838;2022-12-18T07:10:00;18.33;;;9.07;;
27491;SDS011;14927;51.210;6.838;2022-12-18T07:12:46;13.82;;;7.90;;
27491;SDS011;14927;51.210;6.838;2022-12-18T07:15:30;14.27;;;7.45;;
27491;SDS011;14927;51.210;6.838;2022-12-18T07:18:15;18.20;;;8.13;;
27491;SDS011;14927;51.210;6.838;2022-12-18T07:21:06;13.90;;;8.25;;
27491;SDS011;14927;51.210;6.838;2022-12-18T07:23:55;17.60;;;8.13;;
27491;SDS011;14927;51.210;6.838;2022-12-18T07:26:40;15.25;;;7.97;;
27491;SDS011;14927;51.210;6.838;2022-12-18T07:29:24;12.50;;;7.70;;
27491;SDS011;14927;51.210;6.838;2022-12-18T07:32:09;14.23;;;7.90;;
27491;SDS011;14927;51.210;6.838;2022-12-18T07:34:54;15.40;;;7.63;;
27491;SDS011;14927;51.210;6.838;2022-12-18T07:37:39;15.55;;;8.27;;
27491;SDS011;14927;51.210;6.838;2022-12-18T07:40:23;14.65;;;7.88;;
27491;SDS011;14927;51.210;6.838;2022-12-18T07:43:08;16.42;;;8.00;;
27491;SDS011;14927;51.210;6.838;2022-12-18T07:45:53;15.60;;;8.15;;
27491;SDS011;14927;51.210;6.838;2022-12-18T07:48:37;15.23;;;8.13;;
27491;SDS011;14927;51.210;6.838;2022-12-18T07:51:22;18.58;;;8.68;;
27491;SDS011;14927;51.210;6.838;2022-12-18T07:54:07;19.30;;;8.85;;
27491;SDS011;14927;51.210;6.838;2022-12-18T07:56:51;16.30;;;8.82;;
27491;SDS011;14927;51.210;6.838;2022-12-18T07:59:36;16.65;;;8.55;;
27491;SDS011;14927;51.210;6.838;2022-12-18T08:02:21;14.38;;;8.00;;
27491;SDS011;14927;51.210;6.838;2022-12-18T08:05:11;18.27;;;8.98;;
27491;SDS011;14927;51.210;6.838;2022-12-18T08:07:55;15.15;;;8.02;;
27491;SDS011;14927;51.210;6.838;2022-12-18T08:10:49;15.25;;;8.32;;
27491;SDS011;14927;51.210;6.838;2022-12-18T08:16:23;14.35;;;8.20;;
27491;SDS011;14927;51.210;6.838;2022-12-18T08:19:09;17.73;;;8.88;;
27491;SDS011;14927;51.210;6.838;2022-12-18T08:21:53;14.57;;;8.82;;
27491;SDS011;14927;51.210;6.838;2022-12-18T08:24:38;18.02;;;9.38;;
27491;SDS011;14927;51.210;6.838;2022-12-18T08:27:26;18.77;;;9.20;;
27491;SDS011;14927;51.210;6.838;2022-12-18T08:30:11;18.65;;;9.18;;
27491;SDS011;14927;51.210;6.838;2022-12-18T08:33:00;22.17;;;10.90;;
27491;SDS011;14927;51.210;6.838;2022-12-18T08:35:45;17.60;;;9.47;;
27491;SDS011;14927;51.210;6.838;2022-12-18T08:38:31;16.08;;;8.98;;
27491;SDS011;14927;51.210;6.838;2022-12-18T08:41:16;18.00;;;9.95;;
27491;SDS011;14927;51.210;6.838;2022-12-18T08:44:02;17.98;;;9.60;;
27491;SDS011;14927;51.210;6.838;2022-12-18T08:47:06;18.98;;;9.32;;
27491;SDS011;14927;51.210;6.838;2022-12-18T08:49:51;19.08;;;9.52;;
27491;SDS011;14927;51.210;6.838;2022-12-18T08:52:36;17.30;;;10.00;;
27491;SDS011;14927;51.210;6.838;2022-12-18T08:55:20;19.45;;;10.02;;
27491;SDS011;14927;51.210;6.838;2022-12-18T09:00:54;19.02;;;9.63;;
27491;SDS011;14927;51.210;6.838;2022-12-18T09:03:46;17.88;;;9.93;;
27491;SDS011;14927;51.210;6.838;2022-12-18T09:06:34;19.75;;;10.30;;
27491;SDS011;14927;51.210;6.838;2022-12-18T09:09:21;18.70;;;10.40;;
27491;SDS011;14927;51.210;6.838;2022-12-18T09:12:07;19.45;;;10.23;;
27491;SDS011;14927;51.210;6.838;2022-12-18T09:15:08;19.35;;;10.07;;
27491;SDS011;14927;51.210;6.838;2022-12-18T09:17:53;18.70;;;9.50;;
27491;SDS011;14927;51.210;6.838;2022-12-18T09:20:38;16.58;;;9.70;;
27491;SDS011;14927;51.210;6.838;2022-12-18T09:23:22;15.82;;;9.05;;
27491;SDS011;14927;51.210;6.838;2022-12-18T09:26:07;19.35;;;9.70;;
27491;SDS011;14927;51.210;6.838;2022-12-18T09:28:52;20.88;;;10.25;;
27491;SDS011;14927;51.210;6.838;2022-12-18T09:31:38;22.73;;;10.35;;
27491;SDS011;14927;51.210;6.838;2022-12-18T09:34:23;16.08;;;9.38;;
27491;SDS011;14927;51.210;6.838;2022-12-18T09:37:08;16.27;;;9.02;;
27491;SDS011;14927;51.210;6.838;2022-12-18T09:39:52;18.30;;;9.32;;
27491;SDS011;14927;51.210;6.838;2022-12-18T09:42:37;19.35;;;9.30;;
27491;SDS011;14927;51.210;6.838;2022-12-18T09:45:22;23.55;;;10.75;;
27491;SDS011;14927;51.210;6.838;2022-12-18T09:48:14;18.23;;;9.52;;
27491;SDS011;14927;51.210;6.838;2022-12-18T09:54:12;16.73;;;9.73;;
27491;SDS011;14927;51.210;6.838;2022-12-18T09:57:04;20.13;;;9.93;;
27491;SDS011;14927;51.210;6.838;2022-12-18T10:00:03;17.00;;;9.65;;
27491;SDS011;14927;51.210;6.838;2022-12-18T10:03:09;18.60;;;9.93;;
27491;SDS011;14927;51.210;6.838;2022-12-18T10:12:37;17.67;;;9.35;;
27491;SDS011;14927;51.210;6.838;2022-12-18T10:15:54;20.17;;;10.27;;
27491;SDS011;14927;51.210;6.838;2022-12-18T10:25:20;16.52;;;9.70;;
27491;SDS011;14927;51.210;6.838;2022-12-18T10:28:39;17.42;;;9.43;;
27491;SDS011;14927;51.210;6.838;2022-12-18T10:31:25;19.23;;;10.00;;
27491;SDS011;14927;51.210;6.838;2022-12-18T10:34:10;18.48;;;9.10;;
27491;SDS011;14927;51.210;6.838;2022-12-18T10:36:56;18.48;;;10.25;;
27491;SDS011;14927;51.210;6.838;2022-12-18T10:39:41;13.77;;;8.90;;
27491;SDS011;14927;51.210;6.838;2022-12-18T10:42:27;18.35;;;9.63;;
27491;SDS011;14927;51.210;6.838;2022-12-18T10:45:15;17.33;;;9.18;;
27491;SDS011;14927;51.210;6.838;2022-12-18T10:48:04;18.75;;;10.23;;
27491;SDS011;14927;51.210;6.838;2022-12-18T10:50:49;15.38;;;8.55;;
27491;SDS011;14927;51.210;6.838;2022-12-18T10:53:36;17.02;;;9.02;;
27491;SDS011;14927;51.210;6.838;2022-12-18T10:56:22;15.05;;;8.27;;
27491;SDS011;14927;51.210;6.838;2022-12-18T10:59:10;17.33;;;9.48;;
27491;SDS011;14927;51.210;6.838;2022-12-18T11:01:58;16.38;;;9.23;;
27491;SDS011;14927;51.210;6.838;2022-12-18T11:04:49;17.90;;;9.27;;
27491;SDS011;14927;51.210;6.838;2022-12-18T11:07:46;16.05;;;8.63;;
27491;SDS011;14927;51.210;6.838;2022-12-18T11:10:35;14.95;;;9.00;;
27491;SDS011;14927;51.210;6.838;2022-12-18T11:13:23;17.80;;;9.48;;
27491;SDS011;14927;51.210;6.838;2022-12-18T11:16:17;15.38;;;9.20;;
27491;SDS011;14927;51.210;6.838;2022-12-18T11:22:30;20.05;;;9.30;;
27491;SDS011;14927;51.210;6.838;2022-12-18T11:25:18;16.75;;;8.52;;
27491;SDS011;14927;51.210;6.838;2022-12-18T11:28:05;16.98;;;8.68;;
27491;SDS011;14927;51.210;6.838;2022-12-18T11:31:25;16.30;;;9.00;;
27491;SDS011;14927;51.210;6.838;2022-12-18T11:34:14;19.55;;;9.10;;
27491;SDS011;14927;51.210;6.838;2022-12-18T11:37:12;17.27;;;8.90;;
27491;SDS011;14927;51.210;6.838;2022-12-18T11:40:00;15.65;;;9.02;;
27491;SDS011;14927;51.210;6.838;2022-12-18T11:42:54;19.08;;;9.50;;
27491;SDS011;14927;51.210;6.838;2022-12-18T11:45:52;18.52;;;9.45;;
27491;SDS011;14927;51.210;6.838;2022-12-18T11:48:49;16.60;;;8.98;;
27491;SDS011;14927;51.210;6.838;2022-12-18T11:55:00;14.95;;;9.10;;
27491;SDS011;14927;51.210;6.838;2022-12-18T12:01:10;18.08;;;9.30;;
27491;SDS011;14927;51.210;6.838;2022-12-18T12:13:25;17.70;;;10.10;;
27491;SDS011;14927;51.210;6.838;2022-12-18T12:19:44;25.33;;;10.85;;
27491;SDS011;14927;51.210;6.838;2022-12-18T12:38:57;22.97;;;11.40;;
27491;SDS011;14927;51.210;6.838;2022-12-18T12:41:50;19.08;;;10.50;;
27491;SDS011;14927;51.210;6.838;2022-12-18T12:44:54;21.45;;;11.70;;
27491;SDS011;14927;51.210;6.838;2022-12-18T12:47:41;21.23;;;11.80;;
27491;SDS011;14927;51.210;6.838;2022-12-18T12:50:27;25.40;;;12.10;;
27491;SDS011;14927;51.210;6.838;2022-12-18T12:53:27;23.92;;;11.88;;
27491;SDS011;14927;51.210;6.838;2022-12-18T12:56:20;20.95;;;11.93;;
27491;SDS011;14927;51.210;6.838;2022-12-18T13:06:00;22.92;;;12.90;;
27491;SDS011;14927;51.210;6.838;2022-12-18T13:11:41;22.00;;;12.48;;
27491;SDS011;14927;51.210;6.838;2022-12-18T13:14:50;30.47;;;13.73;;
27491;SDS011;14927;51.210;6.838;2022-12-18T13:17:35;24.98;;;12.85;;
27491;SDS011;14927;51.210;6.838;2022-12-18T13:20:23;24.35;;;13.23;;
27491;SDS011;14927;51.210;6.838;2022-12-18T13:29:03;25.05;;;14.00;;
27491;SDS011;14927;51.210;6.838;2022-12-18T13:34:34;32.85;;;14.35;;
27491;SDS011;14927;51.210;6.838;2022-12-18T13:43:27;25.90;;;14.00;;
27491;SDS011;14927;51.210;6.838;2022-12-18T13:49:35;27.98;;;14.98;;
27491;SDS011;14927;51.210;6.838;2022-12-18T13:52:26;25.63;;;12.90;;
27491;SDS011;14927;51.210;6.838;2022-12-18T13:55:19;29.17;;;14.35;;
27491;SDS011;14927;51.210;6.838;2022-12-18T13:58:06;27.45;;;14.25;;
27491;SDS011;14927;51.210;6.838;2022-12-18T14:00:55;26.80;;;13.85;;
27491;SDS011;14927;51.210;6.838;2022-12-18T14:03:43;29.65;;;14.35;;
27491;SDS011;14927;51.210;6.838;2022-12-18T14:06:31;27.38;;;14.77;;
27491;SDS011;14927;51.210;6.838;2022-12-18T14:09:16;28.40;;;14.65;;
27491;SDS011;14927;51.210;6.838;2022-12-18T14:12:47;32.38;;;15.75;;
27491;SDS011;14927;51.210;6.838;2022-12-18T14:15:42;26.80;;;15.43;;
27491;SDS011;14927;51.210;6.838;2022-12-18T14:24:21;28.00;;;15.38;;
27491;SDS011;14927;51.210;6.838;2022-12-18T14:27:12;26.95;;;14.82;;
27491;SDS011;14927;51.210;6.838;2022-12-18T14:33:27;30.20;;;14.90;;
27491;SDS011;14927;51.210;6.838;2022-12-18T14:36:16;28.30;;;15.32;;
27491;SDS011;14927;51.210;6.838;2022-12-18T14:39:11;31.55;;;15.68;;
27491;SDS011;14927;51.210;6.838;2022-12-18T14:42:04;26.88;;;15.52;;
27491;SDS011;14927;51.210;6.838;2022-12-18T14:44:49;28.73;;;15.85;;
27491;SDS011;14927;51.210;6.838;2022-12-18T14:47:33;30.77;;;15.65;;
27491;SDS011;14927;51.210;6.838;2022-12-18T14:50:18;28.30;;;15.52;;
27491;SDS011;14927;51.210;6.838;2022-12-18T14:53:04;29.75;;;15.82;;
27491;SDS011;14927;51.210;6.838;2022-12-18T14:55:48;27.60;;;16.27;;
27491;SDS011;14927;51.210;6.838;2022-12-18T14:58:33;29.08;;;16.27;;
27491;SDS011;14927;51.210;6.838;2022-12-18T15:01:19;29.45;;;15.68;;
27491;SDS011;14927;51.210;6.838;2022-12-18T15:04:23;38.08;;;16.00;;
27491;SDS011;14927;51.210;6.838;2022-12-18T15:07:12;32.42;;;16.23;;
27491;SDS011;14927;51.210;6.838;2022-12-18T15:15:49;29.67;;;16.48;;
27491;SDS011;14927;51.210;6.838;2022-12-18T15:18:35;29.08;;;16.65;;
27491;SDS011;14927;51.210;6.838;2022-12-18T15:21:31;28.48;;;16.33;;
27491;SDS011;14927;51.210;6.838;2022-12-18T15:24:24;29.60;;;16.80;;
27491;SDS011;14927;51.210;6.838;2022-12-18T15:27:30;29.67;;;17.33;;
27491;SDS011;14927;51.210;6.838;2022-12-18T15:30:22;27.88;;;16.58;;
27491;SDS011;14927;51.210;6.838;2022-12-18T15:33:25;29.48;;;16.52;;
27491;SDS011;14927;51.210;6.838;2022-12-18T15:36:22;34.75;;;17.35;;
27491;SDS011;14927;51.210;6.838;2022-12-18T15:39:15;28.38;;;15.82;;
27491;SDS011;14927;51.210;6.838;2022-12-18T15:42:08;31.98;;;16.33;;
27491;SDS011;14927;51.210;6.838;2022-12-18T15:45:15;32.53;;;17.60;;
27491;SDS011;14927;51.210;6.838;2022-12-18T15:48:00;33.78;;;17.30;;
27491;SDS011;14927;51.210;6.838;2022-12-18T15:51:17;33.58;;;17.23;;
27491;SDS011;14927;51.210;6.838;2022-12-18T15:54:09;31.83;;;17.65;;
27491;SDS011;14927;51.210;6.838;2022-12-18T15:57:01;35.60;;;18.08;;
27491;SDS011;14927;51.210;6.838;2022-12-18T16:00:04;29.58;;;16.35;;
27491;SDS011;14927;51.210;6.838;2022-12-18T16:02:50;35.83;;;18.70;;
27491;SDS011;14927;51.210;6.838;2022-12-18T16:05:34;36.63;;;18.38;;
27491;SDS011;14927;51.210;6.838;2022-12-18T16:08:19;32.95;;;17.50;;
27491;SDS011;14927;51.210;6.838;2022-12-18T16:11:03;30.23;;;17.60;;
27491;SDS011;14927;51.210;6.838;2022-12-18T16:13:49;35.65;;;18.10;;
27491;SDS011;14927;51.210;6.838;2022-12-18T16:16:40;42.60;;;18.35;;
27491;SDS011;14927;51.210;6.838;2022-12-18T16:19:25;34.25;;;18.13;;
27491;SDS011;14927;51.210;6.838;2022-12-18T16:22:29;33.95;;;19.60;;
27491;SDS011;14927;51.210;6.838;2022-12-18T16:25:22;31.75;;;18.63;;
27491;SDS011;14927;51.210;6.838;2022-12-18T16:28:13;35.58;;;19.15;;
27491;SDS011;14927;51.210;6.838;2022-12-18T16:30:57;33.20;;;18.52;;
27491;SDS011;14927;51.210;6.838;2022-12-18T16:33:46;40.92;;;19.63;;
27491;SDS011;14927;51.210;6.838;2022-12-18T16:36:31;36.28;;;20.17;;
27491;SDS011;14927;51.210;6.838;2022-12-18T16:39:17;40.78;;;20.58;;
27491;SDS011;14927;51.210;6.838;2022-12-18T16:42:12;38.10;;;20.08;;
27491;SDS011;14927;51.210;6.838;2022-12-18T16:45:07;37.15;;;20.13;;
27491;SDS011;14927;51.210;6.838;2022-12-18T16:47:54;34.78;;;19.23;;
27491;SDS011;14927;51.210;6.838;2022-12-18T16:50:43;36.92;;;19.77;;
27491;SDS011;14927;51.210;6.838;2022-12-18T16:53:27;40.45;;;20.73;;
27491;SDS011;14927;51.210;6.838;2022-12-18T16:56:12;40.20;;;20.23;;
27491;SDS011;14927;51.210;6.838;2022-12-18T16:59:01;38.30;;;19.88;;
27491;SDS011;14927;51.210;6.838;2022-12-18T17:01:46;38.13;;;21.60;;
27491;SDS011;14927;51.210;6.838;2022-12-18T17:04:31;41.53;;;20.88;;
27491;SDS011;14927;51.210;6.838;2022-12-18T17:07:16;41.38;;;22.00;;
27491;SDS011;14927;51.210;6.838;2022-12-18T17:10:04;37.85;;;21.25;;
27491;SDS011;14927;51.210;6.838;2022-12-18T17:12:50;40.80;;;22.75;;
27491;SDS011;14927;51.210;6.838;2022-12-18T17:15:35;40.95;;;21.63;;
27491;SDS011;14927;51.210;6.838;2022-12-18T17:18:20;39.85;;;20.92;;
27491;SDS011;14927;51.210;6.838;2022-12-18T17:21:05;38.67;;;21.30;;
27491;SDS011;14927;51.210;6.838;2022-12-18T17:23:52;41.17;;;22.77;;
27491;SDS011;14927;51.210;6.838;2022-12-18T17:26:37;41.28;;;22.30;;
27491;SDS011;14927;51.210;6.838;2022-12-18T17:29:25;40.97;;;22.85;;
27491;SDS011;14927;51.210;6.838;2022-12-18T17:32:12;37.88;;;21.27;;
27491;SDS011;14927;51.210;6.838;2022-12-18T17:34:57;40.35;;;20.60;;
27491;SDS011;14927;51.210;6.838;2022-12-18T17:37:47;43.97;;;22.58;;
27491;SDS011;14927;51.210;6.838;2022-12-18T17:40:32;42.15;;;22.85;;
27491;SDS011;14927;51.210;6.838;2022-12-18T17:43:16;42.28;;;23.35;;
27491;SDS011;14927;51.210;6.838;2022-12-18T17:46:02;43.60;;;22.60;;
27491;SDS011;14927;51.210;6.838;2022-12-18T17:48:49;42.75;;;22.88;;
27491;SDS011;14927;51.210;6.838;2022-12-18T17:51:33;41.70;;;23.90;;
27491;SDS011;14927;51.210;6.838;2022-12-18T17:54:18;45.35;;;23.30;;
27491;SDS011;14927;51.210;6.838;2022-12-18T17:57:03;41.03;;;22.17;;
27491;SDS011;14927;51.210;6.838;2022-12-18T17:59:48;46.60;;;23.67;;
27491;SDS011;14927;51.210;6.838;2022-12-18T18:02:33;41.03;;;22.23;;
27491;SDS011;14927;51.210;6.838;2022-12-18T18:05:18;45.28;;;22.80;;
27491;SDS011;14927;51.210;6.838;2022-12-18T18:08:03;43.97;;;23.58;;
27491;SDS011;14927;51.210;6.838;2022-12-18T18:10:48;44.83;;;24.95;;
27491;SDS011;14927;51.210;6.838;2022-12-18T18:13:34;46.63;;;24.15;;
27491;SDS011;14927;51.210;6.838;2022-12-18T18:16:39;43.83;;;23.75;;
27491;SDS011;14927;51.210;6.838;2022-12-18T18:19:27;48.30;;;25.27;;
27491;SDS011;14927;51.210;6.838;2022-12-18T18:22:11;45.90;;;24.77;;
27491;SDS011;14927;51.210;6.838;2022-12-18T18:24:56;50.75;;;25.17;;
27491;SDS011;14927;51.210;6.838;2022-12-18T18:27:41;46.90;;;25.10;;
27491;SDS011;14927;51.210;6.838;2022-12-18T18:30:25;42.20;;;23.98;;
27491;SDS011;14927;51.210;6.838;2022-12-18T18:33:10;47.40;;;24.17;;
27491;SDS011;14927;51.210;6.838;2022-12-18T18:35:55;47.95;;;25.30;;
27491;SDS011;14927;51.210;6.838;2022-12-18T18:38:39;43.88;;;24.35;;
27491;SDS011;14927;51.210;6.838;2022-12-18T18:41:27;49.45;;;25.13;;
27491;SDS011;14927;51.210;6.838;2022-12-18T18:44:13;48.78;;;25.20;;
27491;SDS011;14927;51.210;6.838;2022-12-18T18:47:03;50.45;;;25.55;;
27491;SDS011;14927;51.210;6.838;2022-12-18T18:49:47;50.67;;;25.15;;
27491;SDS011;14927;51.210;6.838;2022-12-18T18:52:32;49.03;;;26.58;;